Time;durP1;ratioP1;P1;durP2;ratioP2;P2;SDS_P1;SDS_P2;PMS_P1;PMS_P2;Temp;Humidity;BMP_temperature;BMP_pressure;BME280_temperature;BME280_humidity;BME280_pressure;Samples;Min_cycle;Max_cycle;Signal;HPM_P1;HPM_P2
2022/03/28 00:01:15;;;;;;;2.45;0.80;;;20.40;49.10;;;;;;4863039;29;20076;-59
2022/03/28 00:03:40;;;;;;;2.13;0.90;;;20.40;49.10;;;;;;4862305;29;20050;-59
2022/03/28 00:06:09;;;;;;;2.30;0.60;;;20.40;49.10;;;;;;4862958;29;20064;-59
2022/03/28 00:08:35;;;;;;;2.35;0.80;;;20.40;49.10;;;;;;4862785;29;20046;-59
2022/03/28 00:11:00;;;;;;;2.63;0.80;;;20.40;49.10;;;;;;4861587;29;20057;-59
2022/03/28 00:13:26;;;;;;;1.95;0.80;;;20.40;49.80;;;;;;4862319;29;20058;-59
2022/03/28 00:15:52;;;;;;;2.17;0.73;;;20.40;49.00;;;;;;4863086;29;20124;-59
2022/03/28 00:18:17;;;;;;;3.17;0.80;;;20.40;49.10;;;;;;4861711;29;20047;-59
2022/03/28 00:20:46;;;;;;;3.20;0.77;;;20.40;49.00;;;;;;4862524;29;20053;-59
2022/03/28 00:23:15;;;;;;;2.67;0.70;;;20.40;49.00;;;;;;4861965;29;20090;-59
2022/03/28 00:25:42;;;;;;;2.70;0.70;;;20.30;49.00;;;;;;4862625;29;20045;-59
2022/03/28 00:28:08;;;;;;;3.30;0.77;;;20.30;48.90;;;;;;4862382;29;20084;-59
2022/03/28 00:30:34;;;;;;;2.90;0.80;;;20.30;49.00;;;;;;4861932;29;20081;-59
2022/03/28 00:32:59;;;;;;;1.67;0.63;;;20.30;48.90;;;;;;4862643;29;20041;-59
2022/03/28 00:35:26;;;;;;;2.00;0.93;;;20.30;48.90;;;;;;4862163;29;20528;-59
2022/03/28 00:37:52;;;;;;;2.58;0.98;;;20.30;48.90;;;;;;4861855;29;20052;-59
2022/03/28 00:40:17;;;;;;;1.85;0.63;;;20.30;48.90;;;;;;4861847;29;20080;-59
2022/03/28 00:42:43;;;;;;;1.10;0.68;;;20.30;48.80;;;;;;4862440;29;20073;-59
2022/03/28 00:45:09;;;;;;;1.73;0.80;;;20.30;48.80;;;;;;4861720;29;20421;-59
2022/03/28 00:47:34;;;;;;;1.85;0.60;;;20.20;48.70;;;;;;4861678;29;20050;-59
2022/03/28 00:50:00;;;;;;;1.98;0.60;;;20.20;48.80;;;;;;4860977;29;20124;-59
2022/03/28 00:52:26;;;;;;;1.38;0.60;;;20.20;48.70;;;;;;4861306;29;20080;-59
2022/03/28 00:54:51;;;;;;;2.13;0.60;;;20.20;48.80;;;;;;4862043;29;20064;-59
2022/03/28 00:57:17;;;;;;;1.48;0.70;;;20.20;48.70;;;;;;4861755;29;20045;-59
2022/03/28 00:59:43;;;;;;;1.55;0.60;;;20.20;48.70;;;;;;4860072;29;20513;-59
2022/03/28 01:02:09;;;;;;;1.02;0.43;;;20.20;48.70;;;;;;4862015;29;20046;-59
2022/03/28 01:04:35;;;;;;;1.48;0.50;;;20.20;48.70;;;;;;4861864;29;20049;-59
2022/03/28 01:07:00;;;;;;;1.02;0.50;;;20.20;48.70;;;;;;4861254;29;20052;-59
2022/03/28 01:09:26;;;;;;;1.83;0.60;;;20.10;48.70;;;;;;4861624;29;20052;-59
2022/03/28 01:11:52;;;;;;;1.70;0.60;;;20.20;48.70;;;;;;4860489;29;20505;-59
2022/03/28 01:14:17;;;;;;;1.67;0.60;;;20.20;48.70;;;;;;4860666;29;20049;-59
2022/03/28 01:19:27;;;;;;;1.10;0.50;;;20.10;48.70;;;;;;4859958;29;20049;-60
2022/03/28 01:21:52;;;;;;;0.90;0.60;;;20.10;48.70;;;;;;4860922;29;20050;-59
2022/03/28 01:24:18;;;;;;;0.70;0.50;;;20.10;48.70;;;;;;4861402;29;20050;-59
2022/03/28 01:26:43;;;;;;;1.17;0.45;;;20.10;48.70;;;;;;4860948;29;20099;-59
2022/03/28 01:29:09;;;;;;;1.35;0.50;;;20.10;48.70;;;;;;4860316;29;20070;-59
2022/03/28 01:31:41;;;;;;;1.00;0.50;;;20.10;48.70;;;;;;4861267;29;20053;-59
2022/03/28 01:34:06;;;;;;;1.55;0.50;;;20.10;48.70;;;;;;4860848;29;20124;-59
2022/03/28 01:36:32;;;;;;;0.90;0.50;;;20.10;48.70;;;;;;4861215;29;20132;-59
2022/03/28 01:38:58;;;;;;;1.10;0.50;;;20.10;48.70;;;;;;4861351;29;20042;-59
2022/03/28 01:41:23;;;;;;;1.23;0.40;;;20.10;48.70;;;;;;4860440;29;20065;-59
2022/03/28 01:43:49;;;;;;;1.73;0.40;;;20.10;48.70;;;;;;4861222;29;20097;-59
2022/03/28 01:46:14;;;;;;;1.58;0.60;;;20.10;48.70;;;;;;4861120;29;20522;-59
2022/03/28 01:48:40;;;;;;;1.23;0.50;;;20.10;48.70;;;;;;4860552;29;20041;-59
2022/03/28 01:51:05;;;;;;;0.73;0.40;;;20.10;48.70;;;;;;4861162;29;20049;-59
2022/03/28 01:53:31;;;;;;;1.52;0.50;;;20.00;48.60;;;;;;4860632;29;20132;-59
2022/03/28 01:55:56;;;;;;;2.35;0.52;;;20.00;48.60;;;;;;4860486;29;20093;-59
2022/03/28 01:58:22;;;;;;;0.77;0.45;;;20.00;48.60;;;;;;4860853;29;20132;-59
2022/03/28 02:00:47;;;;;;;0.75;0.40;;;20.10;48.60;;;;;;4865545;29;20048;-58
2022/03/28 02:03:12;;;;;;;0.40;0.40;;;20.10;48.60;;;;;;4878536;29;20045;-59
2022/03/28 02:05:38;;;;;;;0.80;0.30;;;20.10;48.60;;;;;;4878750;29;20071;-59
2022/03/28 02:08:04;;;;;;;0.88;0.50;;;20.10;48.70;;;;;;4879459;29;20089;-59
2022/03/28 02:10:30;;;;;;;1.60;0.50;;;20.10;48.60;;;;;;4878378;29;20045;-59
2022/03/28 02:12:56;;;;;;;0.70;0.40;;;20.10;48.60;;;;;;4879262;29;20041;-59
2022/03/28 02:15:22;;;;;;;1.15;0.60;;;20.10;48.60;;;;;;4878674;29;20129;-59
2022/03/28 02:17:48;;;;;;;0.68;0.40;;;20.10;48.60;;;;;;4878706;29;20041;-59
2022/03/28 02:20:14;;;;;;;1.00;0.50;;;20.10;48.60;;;;;;4878956;29;20056;-59
2022/03/28 02:22:41;;;;;;;1.30;0.47;;;20.10;48.60;;;;;;4879374;29;20044;-59
2022/03/28 02:25:07;;;;;;;1.15;0.50;;;20.10;48.60;;;;;;4878511;29;20088;-59
2022/03/28 02:27:33;;;;;;;1.88;0.65;;;20.10;48.60;;;;;;4878856;29;20045;-59
2022/03/28 02:29:59;;;;;;;1.10;0.50;;;20.10;48.60;;;;;;4878156;29;20451;-59
2022/03/28 02:32:24;;;;;;;0.77;0.50;;;20.10;48.50;;;;;;4878330;29;20044;-59
2022/03/28 02:34:50;;;;;;;0.95;0.40;;;20.10;48.60;;;;;;4878827;29;20379;-59
2022/03/28 02:37:15;;;;;;;1.33;0.47;;;20.10;48.60;;;;;;4877921;29;20497;-59
2022/03/28 02:39:41;;;;;;;0.60;0.40;;;20.10;48.60;;;;;;4879145;29;20185;-59
2022/03/28 02:42:07;;;;;;;0.68;0.30;;;20.10;48.60;;;;;;4879267;29;20051;-59
2022/03/28 02:44:32;;;;;;;1.35;0.50;;;20.20;48.60;;;;;;4878130;29;20033;-59
2022/03/28 02:46:58;;;;;;;1.38;0.68;;;20.20;48.60;;;;;;4877546;29;20489;-59
2022/03/28 02:49:23;;;;;;;1.08;0.40;;;20.20;48.60;;;;;;4878342;29;20093;-59
2022/03/28 02:51:49;;;;;;;1.73;0.55;;;20.20;48.60;;;;;;4878275;29;20051;-59
2022/03/28 02:54:14;;;;;;;1.15;0.45;;;20.20;48.50;;;;;;4878575;29;20057;-59
2022/03/28 02:56:40;;;;;;;0.73;0.38;;;20.20;48.50;;;;;;4878917;29;20041;-59
2022/03/28 02:59:06;;;;;;;1.10;0.50;;;20.20;48.60;;;;;;4877835;29;20052;-59
2022/03/28 03:01:31;;;;;;;0.70;0.50;;;20.20;48.60;;;;;;4878767;29;20105;-59
2022/03/28 03:03:57;;;;;;;0.80;0.50;;;20.30;48.70;;;;;;4878539;29;20489;-59
2022/03/28 03:06:22;;;;;;;0.73;0.50;;;20.20;48.60;;;;;;4877518;29;20120;-59
2022/03/28 03:08:48;;;;;;;1.33;0.52;;;20.30;48.60;;;;;;4878696;29;20041;-59
2022/03/28 03:11:14;;;;;;;0.60;0.40;;;20.30;48.60;;;;;;4878644;29;20053;-59
2022/03/28 03:13:39;;;;;;;1.33;0.50;;;20.30;48.60;;;;;;4877677;29;20466;-59
2022/03/28 03:16:05;;;;;;;1.23;0.40;;;20.30;48.60;;;;;;4878773;29;20104;-59
2022/03/28 03:18:30;;;;;;;1.27;0.50;;;20.30;48.50;;;;;;4876870;29;20476;-59
2022/03/28 03:20:56;;;;;;;0.93;0.50;;;20.30;48.50;;;;;;4878067;29;20132;-59
2022/03/28 03:23:22;;;;;;;1.13;0.55;;;20.30;48.50;;;;;;4878426;29;20097;-59
2022/03/28 03:25:48;;;;;;;1.02;0.50;;;20.30;48.50;;;;;;4878740;29;20049;-59
2022/03/28 03:28:15;;;;;;;0.70;0.50;;;20.30;48.50;;;;;;4877599;29;20048;-59
2022/03/28 03:30:40;;;;;;;0.68;0.40;;;20.30;48.50;;;;;;4878540;29;20049;-59
2022/03/28 03:33:07;;;;;;;0.80;0.40;;;20.30;48.50;;;;;;4877600;29;20056;-59
2022/03/28 03:35:33;;;;;;;1.70;0.50;;;20.30;48.40;;;;;;4878417;29;20045;-59
2022/03/28 03:37:58;;;;;;;0.98;0.60;;;20.30;48.40;;;;;;4878603;29;20041;-59
2022/03/28 03:40:24;;;;;;;0.40;0.40;;;20.30;48.50;;;;;;4877548;29;20160;-59
2022/03/28 03:42:49;;;;;;;0.80;0.50;;;20.30;48.50;;;;;;4878259;29;20053;-59
2022/03/28 03:45:15;;;;;;;1.10;0.60;;;20.30;48.40;;;;;;4879102;29;20101;-59
2022/03/28 03:47:41;;;;;;;0.60;0.40;;;20.30;48.40;;;;;;4881314;29;20049;-59
2022/03/28 03:50:07;;;;;;;0.90;0.50;;;20.30;48.40;;;;;;4881906;29;20055;-59
2022/03/28 03:52:33;;;;;;;1.40;0.60;;;20.30;48.50;;;;;;4881849;29;20118;-59
2022/03/28 03:54:58;;;;;;;1.83;0.50;;;20.30;48.50;;;;;;4881166;29;20439;-59
2022/03/28 03:57:24;;;;;;;1.48;0.63;;;20.30;48.50;;;;;;4881152;29;20409;-59
2022/03/28 03:59:50;;;;;;;0.90;0.40;;;20.30;48.50;;;;;;4881561;29;20057;-59
2022/03/28 04:02:16;;;;;;;0.98;0.50;;;20.30;48.50;;;;;;4873864;29;20048;-59
2022/03/28 04:04:41;;;;;;;0.90;0.60;;;20.30;48.50;;;;;;4878837;29;20049;-59
2022/03/28 04:07:07;;;;;;;0.60;0.50;;;20.30;48.50;;;;;;4881303;29;20045;-59
2022/03/28 04:09:32;;;;;;;0.95;0.50;;;20.30;48.50;;;;;;4880371;29;20093;-59
2022/03/28 04:11:58;;;;;;;1.10;0.60;;;20.30;48.50;;;;;;4881232;29;20120;-59
2022/03/28 04:14:23;;;;;;;0.80;0.52;;;20.30;48.40;;;;;;4880798;29;20061;-59
2022/03/28 04:16:49;;;;;;;0.70;0.50;;;20.30;49.20;;;;;;4880672;29;20060;-59
2022/03/28 04:19:15;;;;;;;1.00;0.43;;;20.30;48.40;;;;;;4881148;29;20049;-59
2022/03/28 04:21:41;;;;;;;0.82;0.40;;;20.40;48.40;;;;;;4881667;29;20057;-59
2022/03/28 04:24:07;;;;;;;0.65;0.50;;;20.40;48.40;;;;;;4880447;29;20390;-59
2022/03/28 04:26:32;;;;;;;1.00;0.60;;;20.40;48.40;;;;;;4881019;29;20486;-59
2022/03/28 04:28:58;;;;;;;1.70;0.60;;;20.40;48.50;;;;;;4881173;29;20076;-59
2022/03/28 04:31:23;;;;;;;0.98;0.50;;;20.40;48.50;;;;;;4880039;29;20053;-59
2022/03/28 04:33:49;;;;;;;0.70;0.47;;;20.40;48.40;;;;;;4880898;29;20083;-59
2022/03/28 04:36:14;;;;;;;0.77;0.45;;;20.40;48.40;;;;;;4880645;29;20528;-58
2022/03/28 04:38:40;;;;;;;1.73;0.60;;;20.40;48.30;;;;;;4880379;29;20106;-59
2022/03/28 04:41:05;;;;;;;1.00;0.50;;;20.40;48.40;;;;;;4880793;29;20049;-59
2022/03/28 04:43:31;;;;;;;0.80;0.60;;;20.40;48.40;;;;;;4879654;29;20055;-59
2022/03/28 04:45:57;;;;;;;1.15;0.57;;;20.40;48.40;;;;;;4880910;29;20524;-59
2022/03/28 04:48:23;;;;;;;1.00;0.60;;;20.40;48.30;;;;;;4880405;29;20517;-59
2022/03/28 04:50:48;;;;;;;0.90;0.50;;;20.40;48.30;;;;;;4879699;29;20458;-59
2022/03/28 04:53:15;;;;;;;0.70;0.43;;;20.40;48.30;;;;;;4880583;29;20045;-59
2022/03/28 04:55:41;;;;;;;0.98;0.50;;;20.40;48.40;;;;;;4880598;29;20076;-59
2022/03/28 04:58:07;;;;;;;0.85;0.50;;;20.50;48.40;;;;;;4878984;29;20373;-59
2022/03/28 05:00:32;;;;;;;0.75;0.45;;;20.50;48.40;;;;;;4880394;29;20041;-59
2022/03/28 05:02:58;;;;;;;0.65;0.50;;;20.50;48.40;;;;;;4880517;29;20088;-59
2022/03/28 05:05:23;;;;;;;0.43;0.30;;;20.40;48.30;;;;;;4879518;29;20045;-59
2022/03/28 05:07:49;;;;;;;0.85;0.50;;;20.40;48.20;;;;;;4880511;29;20128;-59
2022/03/28 05:10:14;;;;;;;0.90;0.50;;;20.50;48.30;;;;;;4880309;29;20516;-59
2022/03/28 05:12:40;;;;;;;0.85;0.50;;;20.50;48.40;;;;;;4879376;29;20049;-59
2022/03/28 05:15:06;;;;;;;0.70;0.40;;;20.50;48.30;;;;;;4879201;29;20057;-59
2022/03/28 05:17:31;;;;;;;0.80;0.50;;;20.50;48.30;;;;;;4879161;29;20140;-59
2022/03/28 05:19:57;;;;;;;0.77;0.40;;;20.50;48.30;;;;;;4878578;29;20052;-59
2022/03/28 05:22:23;;;;;;;0.80;0.50;;;20.50;48.40;;;;;;4879149;29;20056;-59
2022/03/28 05:24:52;;;;;;;0.90;0.60;;;20.50;48.30;;;;;;4879415;29;20056;-59
2022/03/28 05:27:18;;;;;;;1.33;0.50;;;20.50;48.30;;;;;;4878227;29;20129;-59
2022/03/28 05:29:44;;;;;;;1.25;0.50;;;20.50;48.30;;;;;;4879241;29;20076;-59
2022/03/28 05:32:10;;;;;;;0.80;0.50;;;20.50;48.30;;;;;;4878153;29;20405;-59
2022/03/28 05:34:35;;;;;;;0.95;0.50;;;20.50;48.20;;;;;;4878271;29;20056;-59
2022/03/28 05:37:03;;;;;;;0.50;0.40;;;20.50;48.30;;;;;;4879027;29;20082;-59
2022/03/28 05:39:29;;;;;;;0.73;0.47;;;20.50;48.30;;;;;;4878989;29;20052;-58
2022/03/28 05:41:54;;;;;;;0.50;0.50;;;20.50;48.30;;;;;;4877058;29;20057;-59
2022/03/28 05:44:20;;;;;;;0.80;0.50;;;20.50;48.30;;;;;;4878374;29;20064;-59
2022/03/28 05:46:48;;;;;;;0.98;0.57;;;20.50;48.30;;;;;;4878072;29;20052;-59
2022/03/28 05:49:14;;;;;;;0.55;0.40;;;20.50;48.20;;;;;;4878503;29;20049;-59
2022/03/28 05:51:39;;;;;;;1.08;0.50;;;20.60;48.30;;;;;;4878885;29;20140;-59
2022/03/28 05:54:05;;;;;;;0.65;0.40;;;20.50;48.30;;;;;;4877879;29;20159;-59
2022/03/28 05:56:31;;;;;;;0.80;0.60;;;20.60;48.30;;;;;;4878779;29;20497;-59
2022/03/28 05:58:57;;;;;;;0.63;0.40;;;20.60;48.30;;;;;;4878990;29;20049;-59
2022/03/28 06:01:22;;;;;;;0.85;0.50;;;20.60;48.30;;;;;;4878066;29;20063;-59
2022/03/28 06:03:48;;;;;;;1.85;0.60;;;20.60;48.30;;;;;;4878676;29;20123;-59
2022/03/28 06:06:13;;;;;;;0.60;0.45;;;20.60;48.30;;;;;;4878447;29;20049;-59
2022/03/28 06:08:39;;;;;;;1.10;0.50;;;20.60;48.30;;;;;;4877736;29;20064;-59
2022/03/28 06:11:05;;;;;;;1.05;0.47;;;20.60;48.30;;;;;;4878731;29;20189;-59
2022/03/28 06:13:31;;;;;;;1.42;0.60;;;20.60;48.20;;;;;;4844155;29;1012323;-59
2022/03/28 06:15:57;;;;;;;0.95;0.50;;;20.60;48.30;;;;;;4878570;29;20049;-59
2022/03/28 06:18:23;;;;;;;0.90;0.43;;;20.60;48.20;;;;;;4879023;29;20041;-58
2022/03/28 06:20:48;;;;;;;1.52;0.50;;;20.60;48.30;;;;;;4879281;29;20096;-59
2022/03/28 06:23:14;;;;;;;0.90;0.40;;;20.70;48.30;;;;;;4878236;29;20075;-59
2022/03/28 06:25:40;;;;;;;1.00;0.47;;;20.70;48.30;;;;;;4879267;29;20468;-59
2022/03/28 06:28:06;;;;;;;1.15;0.50;;;20.70;48.30;;;;;;4878913;29;20056;-58
2022/03/28 06:30:31;;;;;;;0.88;0.50;;;20.70;48.30;;;;;;4878043;29;20051;-59
2022/03/28 06:32:57;;;;;;;1.02;0.45;;;20.70;48.30;;;;;;4879245;29;20041;-59
2022/03/28 06:35:23;;;;;;;0.82;0.50;;;20.70;48.30;;;;;;4878599;29;20076;-59
2022/03/28 06:37:52;;;;;;;0.50;0.40;;;20.70;48.20;;;;;;4878258;29;20048;-59
2022/03/28 06:40:17;;;;;;;0.60;0.45;;;20.70;48.20;;;;;;4878709;29;20048;-57
2022/03/28 06:42:43;;;;;;;0.95;0.60;;;20.70;48.20;;;;;;4878005;29;20121;-58
2022/03/28 06:45:10;;;;;;;0.85;0.50;;;20.70;48.20;;;;;;4877544;29;20127;-58
2022/03/28 06:47:36;;;;;;;0.75;0.55;;;20.70;48.30;;;;;;4878787;29;20052;-59
2022/03/28 06:50:01;;;;;;;1.42;0.60;;;20.70;48.50;;;;;;4876861;29;20055;-59
2022/03/28 06:52:27;;;;;;;1.52;0.50;;;20.80;48.60;;;;;;4878862;29;20402;-59
2022/03/28 06:54:53;;;;;;;2.15;0.60;;;20.80;48.60;;;;;;4878523;29;20053;-58
2022/03/28 06:57:18;;;;;;;0.75;0.50;;;20.80;48.60;;;;;;4876139;29;20502;-59
2022/03/28 06:59:43;;;;;;;1.48;0.63;;;20.80;48.60;;;;;;4886845;29;20056;-58
2022/03/28 07:02:09;;;;;;;2.60;0.40;;;20.80;48.70;;;;;;4897543;29;20048;-58
2022/03/28 07:04:34;;;;;;;3.00;0.55;;;20.80;48.70;;;;;;4896858;29;20059;-58
2022/03/28 07:07:00;;;;;;;1.17;0.80;;;20.80;48.70;;;;;;4889034;29;20634;-59
2022/03/28 07:09:26;;;;;;;2.80;0.73;;;20.80;48.80;;;;;;4878319;29;20052;-59
2022/03/28 07:11:51;;;;;;;4.57;0.68;;;20.80;48.80;;;;;;4878346;29;20048;-59
2022/03/28 07:14:17;;;;;;;2.20;0.90;;;20.90;48.90;;;;;;4883184;29;20524;-59
2022/03/28 07:16:43;;;;;;;2.90;1.20;;;20.90;49.00;;;;;;4878399;29;20153;-59
2022/03/28 07:19:09;;;;;;;5.15;1.30;;;20.90;49.20;;;;;;4896572;29;20131;-59
2022/03/28 07:21:34;;;;;;;4.38;1.30;;;20.90;49.30;;;;;;4900226;29;20127;-59
2022/03/28 07:24:00;;;;;;;3.65;1.33;;;20.90;49.40;;;;;;4901085;29;20413;-58
2022/03/28 07:26:26;;;;;;;6.50;1.98;;;20.90;49.50;;;;;;4899622;29;20404;-58
2022/03/28 07:28:51;;;;;;;5.22;1.92;;;20.90;49.50;;;;;;4900912;29;20489;-59
2022/03/28 07:31:18;;;;;;;5.03;1.80;;;20.90;49.60;;;;;;4900822;29;20046;-59
2022/03/28 07:33:43;;;;;;;5.20;2.33;;;20.90;49.60;;;;;;4900196;29;20056;-59
2022/03/28 07:36:09;;;;;;;4.97;1.83;;;20.90;49.60;;;;;;4900847;29;20048;-58
2022/03/28 07:38:35;;;;;;;4.60;1.80;;;21.00;49.70;;;;;;4898623;29;20088;-58
2022/03/28 07:41:01;;;;;;;6.57;2.10;;;21.00;49.70;;;;;;4885919;29;20104;-58
2022/03/28 07:43:26;;;;;;;7.10;2.47;;;21.00;49.60;;;;;;4887542;29;20132;-58
2022/03/28 07:45:54;;;;;;;5.82;2.10;;;21.00;49.60;;;;;;4881545;29;20124;-59
2022/03/28 07:48:21;;;;;;;6.47;2.43;;;21.00;49.50;;;;;;4875381;29;20048;-59
2022/03/28 07:50:47;;;;;;;5.18;1.90;;;21.00;49.50;;;;;;4881122;29;20041;-58
2022/03/28 07:53:13;;;;;;;9.32;2.33;;;21.00;49.50;;;;;;4869994;29;20043;-60
2022/03/28 07:55:39;;;;;;;5.72;1.90;;;21.00;49.50;;;;;;4872966;29;20037;-59
2022/03/28 07:58:06;;;;;;;7.30;2.50;;;21.00;49.50;;;;;;4871102;29;20045;-59
2022/03/28 08:00:32;;;;;;;5.90;1.77;;;21.00;49.60;;;;;;4879625;29;20033;-58
2022/03/28 08:02:57;;;;;;;6.43;2.40;;;21.00;49.70;;;;;;4880861;29;20093;-59
2022/03/28 08:05:23;;;;;;;4.13;2.00;;;21.00;49.80;;;;;;4879907;29;20522;-58
2022/03/28 08:07:50;;;;;;;6.35;1.63;;;21.00;50.00;;;;;;4879856;29;20087;-58
2022/03/28 08:10:16;;;;;;;5.85;1.60;;;21.10;50.20;;;;;;4880199;29;20045;-59
2022/03/28 08:12:43;;;;;;;5.22;1.77;;;21.10;50.40;;;;;;4877691;29;20501;-59
2022/03/28 08:15:09;;;;;;;5.63;1.80;;;21.10;50.30;;;;;;4878414;29;20109;-58
2022/03/28 08:17:38;;;;;;;5.28;1.75;;;21.10;50.30;;;;;;4880144;29;20060;-58
2022/03/28 08:20:06;;;;;;;3.60;1.50;;;21.10;50.30;;;;;;4879964;29;20037;-58
2022/03/28 08:22:32;;;;;;;4.05;1.50;;;21.10;50.20;;;;;;4879212;29;20101;-58
2022/03/28 08:24:58;;;;;;;5.28;1.67;;;21.10;50.20;;;;;;4880510;29;20056;-58
2022/03/28 08:27:23;;;;;;;8.52;2.03;;;21.10;50.30;;;;;;4880108;29;20041;-58
2022/03/28 08:29:49;;;;;;;3.20;1.50;;;21.20;50.40;;;;;;4879789;29;20049;-58
2022/03/28 08:32:15;;;;;;;5.60;2.03;;;21.20;50.60;;;;;;4887552;29;20056;-59
2022/03/28 08:34:40;;;;;;;5.40;1.75;;;21.20;50.60;;;;;;4896377;29;20048;-59
2022/03/28 08:37:06;;;;;;;5.35;1.75;;;21.20;50.40;;;;;;4898177;29;20052;-59
2022/03/28 08:39:31;;;;;;;3.33;1.38;;;21.20;50.40;;;;;;4893990;29;20049;-59
2022/03/28 08:41:57;;;;;;;4.75;1.90;;;21.20;50.30;;;;;;4880161;29;20056;-58
2022/03/28 08:44:24;;;;;;;4.00;1.55;;;21.20;50.40;;;;;;4879519;29;20051;-58
2022/03/28 08:46:50;;;;;;;2.90;1.30;;;21.20;50.50;;;;;;4880764;29;20045;-58
2022/03/28 08:49:18;;;;;;;3.72;1.33;;;21.20;50.60;;;;;;4881873;29;20052;-58
2022/03/28 08:51:43;;;;;;;3.40;1.27;;;21.20;50.60;;;;;;4879155;29;20486;-58
2022/03/28 08:54:09;;;;;;;4.07;1.20;;;21.20;50.60;;;;;;4881406;29;20074;-58
2022/03/28 08:56:34;;;;;;;3.00;1.30;;;21.30;50.70;;;;;;4879527;29;20056;-57
2022/03/28 08:59:00;;;;;;;4.70;1.60;;;21.30;50.80;;;;;;4879469;29;20140;-57
2022/03/28 09:01:26;;;;;;;3.35;1.30;;;21.30;50.90;;;;;;4880170;29;20045;-58
2022/03/28 09:03:51;;;;;;;3.03;1.25;;;21.30;51.00;;;;;;4884870;29;20041;-58
2022/03/28 09:06:32;;;;;;;3.88;1.23;;;21.30;51.10;;;;;;4880282;29;20053;-58
2022/03/28 09:09:24;;;;;;;2.38;1.00;;;21.30;51.20;;;;;;4879429;29;20109;-58
2022/03/28 09:11:55;;;;;;;2.50;1.13;;;21.30;51.20;;;;;;4878738;29;20128;-58
2022/03/28 09:14:31;;;;;;;2.92;1.20;;;21.30;51.20;;;;;;4879800;29;20211;-58
2022/03/28 09:16:57;;;;;;;3.35;1.30;;;21.40;51.40;;;;;;4880469;29;20064;-58
2022/03/28 09:19:23;;;;;;;2.78;1.15;;;21.40;51.40;;;;;;4879474;29;20041;-58
2022/03/28 09:21:51;;;;;;;5.25;1.30;;;21.40;52.00;;;;;;4862852;29;20064;-58
2022/03/28 09:24:17;;;;;;;2.40;1.10;;;21.40;51.30;;;;;;4878031;29;20438;-58
2022/03/28 09:26:42;;;;;;;2.42;1.20;;;21.40;51.30;;;;;;4878980;29;20049;-58
2022/03/28 09:29:08;;;;;;;3.58;1.13;;;21.40;51.20;;;;;;4879946;29;20127;-58
2022/03/28 09:31:42;;;;;;;3.17;1.05;;;21.40;51.20;;;;;;4880007;29;20132;-58
2022/03/28 09:34:12;;;;;;;3.72;1.13;;;21.40;51.10;;;;;;4879434;29;20049;-58
2022/03/28 09:36:42;;;;;;;3.00;1.00;;;21.40;51.10;;;;;;4880248;29;20075;-58
2022/03/28 09:39:28;;;;;;;2.40;1.02;;;21.50;51.10;;;;;;4879129;29;20101;-59
2022/03/28 09:42:02;;;;;;;2.85;0.88;;;21.50;51.20;;;;;;4879616;29;20053;-58
2022/03/28 09:44:48;;;;;;;2.70;0.80;;;21.50;51.10;;;;;;4878988;29;20069;-58
2022/03/28 09:47:18;;;;;;;2.75;1.00;;;21.50;51.00;;;;;;4878372;29;20065;-58
2022/03/28 09:49:45;;;;;;;2.20;0.90;;;21.50;51.10;;;;;;4884818;29;20084;-58
2022/03/28 09:52:21;;;;;;;2.45;0.98;;;21.50;51.10;;;;;;4894656;29;20041;-58
2022/03/28 09:55:01;;;;;;;2.72;0.80;;;21.50;51.10;;;;;;4878206;29;20048;-59
2022/03/28 09:57:36;;;;;;;4.35;1.15;;;21.50;51.10;;;;;;4888157;29;20049;-58
2022/03/28 10:00:12;;;;;;;1.80;0.65;;;21.50;51.00;;;;;;4897543;29;20120;-58
2022/03/28 10:02:38;;;;;;;2.58;1.30;;;21.50;51.00;;;;;;4898207;29;20093;-59
2022/03/28 10:05:04;;;;;;;3.53;0.90;;;21.50;50.90;;;;;;4898420;29;20091;-58
2022/03/28 10:07:30;;;;;;;2.45;1.08;;;21.50;50.80;;;;;;4897308;29;20062;-59
2022/03/28 10:09:56;;;;;;;3.13;0.90;;;21.50;50.80;;;;;;4896587;29;20367;-59
2022/03/28 10:12:22;;;;;;;2.47;0.88;;;21.60;50.90;;;;;;4896449;29;20540;-59
2022/03/28 10:14:50;;;;;;;2.63;0.88;;;21.50;50.90;;;;;;4896851;29;20049;-59
2022/03/28 10:17:16;;;;;;;4.63;1.17;;;21.50;50.80;;;;;;4897862;29;20052;-59
2022/03/28 10:19:41;;;;;;;1.88;0.80;;;21.50;50.80;;;;;;4897135;29;20060;-58
2022/03/28 10:22:10;;;;;;;1.90;0.70;;;21.60;50.90;;;;;;4882796;29;20041;-58
2022/03/28 10:24:36;;;;;;;2.38;0.77;;;21.60;50.80;;;;;;4875522;29;20049;-59
2022/03/28 10:27:02;;;;;;;2.28;0.88;;;21.50;50.80;;;;;;4877775;29;20045;-59
2022/03/28 10:29:36;;;;;;;2.20;0.73;;;21.60;50.80;;;;;;4877518;29;20037;-58
2022/03/28 10:32:06;;;;;;;3.65;0.93;;;21.60;50.80;;;;;;4879180;29;20057;-58
2022/03/28 10:34:59;;;;;;;1.80;0.73;;;21.60;50.70;;;;;;4879687;29;20482;-59
2022/03/28 10:37:31;;;;;;;1.52;0.80;;;21.60;50.60;;;;;;4877987;29;20053;-58
2022/03/28 10:40:28;;;;;;;2.53;0.80;;;21.60;50.60;;;;;;4879181;29;20049;-59
2022/03/28 10:42:57;;;;;;;2.60;0.80;;;21.60;50.50;;;;;;4878439;29;20120;-58
2022/03/28 10:45:31;;;;;;;1.38;0.88;;;21.60;50.50;;;;;;4878537;29;20104;-58
2022/03/28 10:47:58;;;;;;;1.95;0.80;;;21.60;50.50;;;;;;4878642;29;20060;-58
2022/03/28 10:50:35;;;;;;;3.55;0.90;;;21.60;50.40;;;;;;4878005;29;20493;-58
2022/03/28 10:53:19;;;;;;;2.08;0.70;;;21.60;50.50;;;;;;4878816;29;20053;-58
2022/03/28 10:55:48;;;;;;;2.15;1.02;;;21.60;50.50;;;;;;4876102;29;20056;-58
2022/03/28 10:58:22;;;;;;;2.75;0.75;;;21.60;50.40;;;;;;4877876;29;20049;-58
2022/03/28 11:01:13;;;;;;;1.90;1.00;;;21.60;50.20;;;;;;4878924;29;20077;-58
2022/03/28 11:04:00;;;;;;;2.47;0.80;;;21.60;50.10;;;;;;4877916;29;20442;-58
2022/03/28 11:06:59;;;;;;;2.27;0.90;;;21.60;50.20;;;;;;4877768;29;20044;-58
2022/03/28 11:10:02;;;;;;;4.03;0.95;;;21.60;50.00;;;;;;4877787;29;20127;-58
2022/03/28 11:12:40;;;;;;;2.42;0.98;;;21.60;50.00;;;;;;4877057;29;20489;-58
2022/03/28 11:15:19;;;;;;;4.38;1.15;;;21.60;50.00;;;;;;4875405;29;20057;-58
2022/03/28 11:17:55;;;;;;;4.85;1.80;;;21.60;50.00;;;;;;4876157;29;20049;-58
2022/03/28 11:20:23;;;;;;;8.55;2.20;;;21.60;50.00;;;;;;4877488;29;20041;-58
2022/03/28 11:22:56;;;;;;;5.65;1.95;;;21.60;50.00;;;;;;4878299;29;20154;-58
2022/03/28 11:25:36;;;;;;;5.05;2.20;;;21.60;50.20;;;;;;4877203;29;20119;-58
2022/03/28 11:28:02;;;;;;;5.63;2.30;;;21.60;50.20;;;;;;4879804;29;20041;-58
2022/03/28 11:30:27;;;;;;;5.38;2.45;;;21.60;51.10;;;;;;4877871;29;20045;-58
2022/03/28 11:32:54;;;;;;;4.57;2.03;;;21.60;50.40;;;;;;4877629;29;20057;-58
2022/03/28 11:35:20;;;;;;;5.65;1.90;;;21.60;50.40;;;;;;4876200;29;20045;-58
2022/03/28 11:37:45;;;;;;;7.65;2.35;;;21.60;50.40;;;;;;4877960;29;20096;-58
2022/03/28 11:40:11;;;;;;;4.57;2.17;;;21.60;50.50;;;;;;4876966;29;20393;-58
2022/03/28 11:42:37;;;;;;;4.88;2.28;;;21.60;50.50;;;;;;4877883;29;20251;-58
2022/03/28 11:45:10;;;;;;;4.97;2.28;;;21.60;50.40;;;;;;4876849;29;20774;-59
2022/03/28 11:47:37;;;;;;;3.53;1.90;;;21.60;50.40;;;;;;4877375;29;20045;-58
2022/03/28 11:50:04;;;;;;;6.00;2.05;;;21.60;50.40;;;;;;4877891;29;20049;-58
2022/03/28 11:52:29;;;;;;;5.63;2.08;;;21.60;50.30;;;;;;4876502;29;20481;-58
2022/03/28 11:54:56;;;;;;;5.10;1.95;;;21.60;50.30;;;;;;4878195;29;20047;-58
2022/03/28 12:00:18;;;;;;;3.83;1.85;;;21.60;50.20;;;;;;4873562;29;20486;-58
2022/03/28 12:02:57;;;;;;;5.15;2.03;;;21.60;50.30;;;;;;4877769;29;20051;-58
2022/03/28 12:05:39;;;;;;;4.38;1.60;;;21.60;50.20;;;;;;4877489;29;20041;-58
2022/03/28 12:08:09;;;;;;;5.97;2.38;;;21.60;50.20;;;;;;4882836;29;20119;-58
2022/03/28 12:10:39;;;;;;;3.67;1.73;;;21.60;50.20;;;;;;4880711;29;20520;-58
2022/03/28 12:13:06;;;;;;;4.43;1.73;;;21.60;50.80;;;;;;4881037;29;20041;-57
2022/03/28 12:15:47;;;;;;;4.10;1.83;;;21.60;50.10;;;;;;4880241;29;20060;-57
2022/03/28 12:18:15;;;;;;;4.57;1.77;;;21.60;50.20;;;;;;4879965;29;20052;-58
2022/03/28 12:20:43;;;;;;;5.90;1.90;;;21.60;50.20;;;;;;4880142;29;20489;-58
2022/03/28 12:23:09;;;;;;;4.43;1.52;;;21.60;50.20;;;;;;4880716;29;20447;-58
2022/03/28 12:25:36;;;;;;;4.43;1.50;;;21.60;50.20;;;;;;4880727;29;20037;-57
2022/03/28 12:28:05;;;;;;;4.05;1.38;;;21.60;50.20;;;;;;4880133;29;20053;-57
2022/03/28 12:30:55;;;;;;;2.92;1.30;;;21.60;50.10;;;;;;4880664;29;20078;-58
2022/03/28 12:33:28;;;;;;;3.60;1.73;;;21.60;50.10;;;;;;4878338;29;20533;-58
2022/03/28 12:35:58;;;;;;;3.97;1.70;;;21.60;50.20;;;;;;4879185;29;20077;-59
2022/03/28 12:38:44;;;;;;;5.18;1.60;;;21.60;50.10;;;;;;4880294;29;20108;-58
2022/03/28 12:41:14;;;;;;;2.80;1.30;;;21.70;50.30;;;;;;4879527;29;20049;-58
2022/03/28 12:43:45;;;;;;;5.80;1.73;;;21.70;50.20;;;;;;4877714;29;20186;-58
2022/03/28 12:46:11;;;;;;;4.32;1.40;;;21.70;50.20;;;;;;4880741;29;20057;-59
2022/03/28 12:48:40;;;;;;;5.00;2.10;;;21.70;50.20;;;;;;4880310;29;20044;-61
2022/03/28 12:51:06;;;;;;;4.60;1.58;;;21.70;50.50;;;;;;4879958;29;20048;-59
2022/03/28 12:53:32;;;;;;;4.97;1.80;;;21.70;50.40;;;;;;4880247;29;20075;-60
2022/03/28 12:56:21;;;;;;;3.95;1.60;;;21.70;51.00;;;;;;4879135;29;20069;-59